createdAt,value
2022-09-10T00:00:37.457Z,0.00
2022-09-10T00:01:37.429Z,0.00
2022-09-10T00:02:37.289Z,0.00
2022-09-10T00:03:37.349Z,0.00
2022-09-10T00:04:37.390Z,0.00
2022-09-10T00:05:37.394Z,0.00
2022-09-10T00:06:37.412Z,0.00
2022-09-10T00:07:37.747Z,0.00
2022-09-10T00:08:37.693Z,0.00
2022-09-10T00:09:37.516Z,0.00
2022-09-10T00:10:37.568Z,0.00
2022-09-10T00:11:37.613Z,0.00
2022-09-10T00:12:37.622Z,0.00
2022-09-10T00:13:37.656Z,0.00
2022-09-10T00:14:37.995Z,0.00
2022-09-10T00:15:37.724Z,0.00
2022-09-10T00:16:37.821Z,0.00
2022-09-10T00:17:37.785Z,0.00
2022-09-10T00:18:37.864Z,0.00
2022-09-10T00:19:37.862Z,0.00
2022-09-10T00:20:37.913Z,0.00
2022-09-10T00:21:38.267Z,0.00
2022-09-10T00:22:37.960Z,0.00
2022-09-10T00:23:38.024Z,0.00
2022-09-10T00:24:38.041Z,0.00
2022-09-10T00:25:38.159Z,0.00
2022-09-10T00:26:38.142Z,0.00
2022-09-10T00:27:38.122Z,0.00
2022-09-10T00:28:38.680Z,0.00
2022-09-10T00:29:38.216Z,0.00
2022-09-10T00:30:38.239Z,0.00
2022-09-10T00:31:38.417Z,0.00
2022-09-10T00:33:38.354Z,0.00
2022-09-10T00:34:38.373Z,0.00
2022-09-10T00:35:38.672Z,0.00
2022-09-10T00:36:38.447Z,0.00
2022-09-10T00:37:38.461Z,0.00
2022-09-10T00:38:38.559Z,0.00
2022-09-10T00:39:38.594Z,0.00
2022-09-10T00:40:38.573Z,0.00
2022-09-10T00:41:38.919Z,0.00
2022-09-10T00:42:38.678Z,0.00
2022-09-10T00:43:39.014Z,0.00
2022-09-10T00:44:38.752Z,0.00
2022-09-10T00:45:38.806Z,0.00
2022-09-10T00:46:38.802Z,0.00
2022-09-10T00:47:39.062Z,0.00
2022-09-10T00:48:38.975Z,0.00
2022-09-10T00:49:38.889Z,0.00
2022-09-10T00:50:39.386Z,0.00
2022-09-10T00:51:38.943Z,0.00
2022-09-10T00:52:39.980Z,0.00
2022-09-10T00:53:39.413Z,0.00
2022-09-10T00:54:39.052Z,0.00
2022-09-10T00:55:39.072Z,0.00
2022-09-10T00:56:39.112Z,0.00
2022-09-10T00:57:39.145Z,0.00
2022-09-10T00:58:39.433Z,0.00
2022-09-10T00:59:39.408Z,0.00
2022-09-10T01:00:39.554Z,0.00
2022-09-10T01:01:39.390Z,0.00
2022-09-10T01:02:39.325Z,0.00
2022-09-10T01:03:39.340Z,0.00
2022-09-10T01:04:39.432Z,0.00
2022-09-10T01:05:39.413Z,0.00
2022-09-10T01:06:39.459Z,0.00
2022-09-10T01:07:39.732Z,0.00
2022-09-10T01:08:39.687Z,0.00
2022-09-10T01:09:39.546Z,0.00
2022-09-10T01:10:39.586Z,0.00
2022-09-10T01:11:39.619Z,0.00
2022-09-10T01:12:39.649Z,0.00
2022-09-10T01:13:39.680Z,0.00
2022-09-10T01:14:40.034Z,0.00
2022-09-10T01:15:39.749Z,0.00
2022-09-10T01:16:39.787Z,0.00
2022-09-10T01:17:39.813Z,0.00
2022-09-10T01:18:39.999Z,0.00
2022-09-10T01:19:39.938Z,0.00
2022-09-10T01:20:39.918Z,0.00
2022-09-10T01:21:40.203Z,0.00
2022-09-10T01:22:39.990Z,0.00
2022-09-10T01:23:40.020Z,0.00
2022-09-10T01:24:40.059Z,0.00
2022-09-10T01:25:40.094Z,0.00
2022-09-10T01:26:40.123Z,0.00
2022-09-10T01:27:40.155Z,0.00
2022-09-10T01:28:40.490Z,0.00
2022-09-10T01:29:40.223Z,0.00
2022-09-10T01:30:40.842Z,0.00
2022-09-10T01:31:40.386Z,0.00
2022-09-10T01:32:40.332Z,0.00
2022-09-10T01:33:40.355Z,0.00
2022-09-10T01:34:40.394Z,0.00
2022-09-10T01:35:40.687Z,0.00
2022-09-10T01:36:40.471Z,0.00
2022-09-10T01:37:40.501Z,0.00
2022-09-10T01:38:40.568Z,0.00
2022-09-10T01:39:40.642Z,0.00
2022-09-10T01:40:40.599Z,0.00
2022-09-10T01:41:40.630Z,0.00
2022-09-10T01:42:40.977Z,0.00
2022-09-10T01:43:40.701Z,0.00
2022-09-10T01:44:40.738Z,0.00
2022-09-10T01:45:40.805Z,0.00
2022-09-10T01:46:40.816Z,0.00
2022-09-10T01:47:40.841Z,0.00
2022-09-10T01:48:40.872Z,0.00
2022-09-10T01:49:41.153Z,0.00
2022-09-10T01:50:40.936Z,0.00
2022-09-10T01:51:40.972Z,0.00
2022-09-10T01:52:41.002Z,0.00
2022-09-10T01:53:41.037Z,0.00
2022-09-10T01:54:41.072Z,0.00
2022-09-10T01:55:41.109Z,0.00
2022-09-10T01:56:41.392Z,0.00
2022-09-10T01:57:41.173Z,0.00
2022-09-10T01:58:41.291Z,0.00
2022-09-10T01:59:41.240Z,0.00
2022-09-10T02:00:41.321Z,0.00
2022-09-10T02:01:41.577Z,0.00
2022-09-10T02:02:41.639Z,0.00
2022-09-10T02:03:41.727Z,0.00
2022-09-10T02:04:42.163Z,0.00
2022-09-10T02:05:41.529Z,0.00
2022-09-10T02:06:41.488Z,0.00
2022-09-10T02:07:41.520Z,0.00
2022-09-10T02:08:41.569Z,0.00
2022-09-10T02:09:41.593Z,0.00
2022-09-10T02:10:41.993Z,0.00
2022-09-10T02:11:41.650Z,0.00
2022-09-10T02:12:41.691Z,0.00
2022-09-10T02:13:41.733Z,0.00
2022-09-10T02:14:41.748Z,0.00
2022-09-10T02:15:41.783Z,0.00
2022-09-10T02:16:41.865Z,0.00
2022-09-10T02:17:42.151Z,0.00
2022-09-10T02:18:41.905Z,0.00
2022-09-10T02:19:41.947Z,0.00
2022-09-10T02:20:41.980Z,0.00
2022-09-10T02:21:41.988Z,0.00
2022-09-10T02:22:42.037Z,0.00
2022-09-10T02:23:42.309Z,0.00
2022-09-10T02:24:42.125Z,0.00
2022-09-10T02:25:42.211Z,0.00
2022-09-10T02:26:42.290Z,0.00
2022-09-10T02:27:42.201Z,0.00
2022-09-10T02:28:42.222Z,0.00
2022-09-10T02:29:42.661Z,0.00
2022-09-10T02:30:42.291Z,0.00
2022-09-10T02:31:42.452Z,0.00
2022-09-10T02:32:42.362Z,0.00
2022-09-10T02:33:42.398Z,0.00
2022-09-10T02:34:42.448Z,0.00
2022-09-10T02:35:42.709Z,0.00
2022-09-10T02:36:42.494Z,0.00
2022-09-10T02:37:42.524Z,0.00
2022-09-10T02:38:42.560Z,0.00
2022-09-10T02:39:42.648Z,0.00
2022-09-10T02:40:42.634Z,0.00
2022-09-10T02:41:42.663Z,0.00
2022-09-10T02:44:43.021Z,0.00
2022-09-10T02:45:42.842Z,0.00
2022-09-10T02:46:42.830Z,0.00
2022-09-10T02:48:42.905Z,0.00
2022-09-10T02:49:42.931Z,0.00
2022-09-10T02:50:43.241Z,0.00
2022-09-10T02:51:43.010Z,0.00
2022-09-10T02:52:43.041Z,0.00
2022-09-10T02:53:43.069Z,0.00
2022-09-10T02:54:43.114Z,0.00
2022-09-10T02:55:43.141Z,0.00
2022-09-10T02:56:43.167Z,0.00
2022-09-10T02:57:43.511Z,0.00
2022-09-10T02:58:43.255Z,0.00
2022-09-10T02:59:43.272Z,0.00
2022-09-10T03:00:43.780Z,0.00
2022-09-10T03:01:43.408Z,0.00
2022-09-10T03:02:43.385Z,0.00
2022-09-10T03:03:43.406Z,0.00
2022-09-10T03:04:43.742Z,0.00
2022-09-10T03:05:43.471Z,0.00
2022-09-10T03:06:43.535Z,0.00
2022-09-10T03:07:43.549Z,0.00
2022-09-10T03:08:43.572Z,0.00
2022-09-10T03:09:43.610Z,0.00
2022-09-10T03:10:43.643Z,0.00
2022-09-10T03:11:43.983Z,0.00
2022-09-10T03:12:43.712Z,0.00
2022-09-10T03:13:43.755Z,0.00
2022-09-10T03:14:43.779Z,0.00
2022-09-10T03:15:43.818Z,0.00
2022-09-10T03:16:43.906Z,0.00
2022-09-10T03:17:43.881Z,0.00
2022-09-10T03:18:44.165Z,0.00
2022-09-10T03:19:43.959Z,0.00
2022-09-10T03:20:43.990Z,0.00
2022-09-10T03:21:44.017Z,0.00
2022-09-10T03:22:44.074Z,0.00
2022-09-10T03:23:44.725Z,0.00
2022-09-10T03:24:44.127Z,0.00
2022-09-10T03:25:47.907Z,0.00
2022-09-10T03:26:44.191Z,0.00
2022-09-10T03:27:44.238Z,0.00
2022-09-10T03:28:44.255Z,0.00
2022-09-10T03:29:44.285Z,0.00
2022-09-10T03:30:44.325Z,0.00
2022-09-10T03:31:44.401Z,0.00
2022-09-10T03:32:44.695Z,0.00
2022-09-10T03:33:44.421Z,0.00
2022-09-10T03:34:44.455Z,0.00
2022-09-10T03:35:44.491Z,0.00
2022-09-10T03:36:44.525Z,0.00
2022-09-10T03:37:44.565Z,0.00
2022-09-10T03:38:44.611Z,0.00
2022-09-10T03:39:44.904Z,0.00
2022-09-10T03:40:44.656Z,0.00
2022-09-10T03:41:44.701Z,0.00
2022-09-10T03:42:44.733Z,0.00
2022-09-10T03:43:44.759Z,0.00
2022-09-10T03:44:44.794Z,0.00
2022-09-10T03:45:44.950Z,0.00
2022-09-10T03:46:45.112Z,0.00
2022-09-10T03:47:44.890Z,0.00
2022-09-10T03:48:44.977Z,0.00
2022-09-10T03:49:45.012Z,0.00
2022-09-10T03:50:44.991Z,0.00
2022-09-10T03:51:45.032Z,0.00
2022-09-10T03:52:45.064Z,0.00
2022-09-10T03:53:45.346Z,0.00
2022-09-10T03:54:45.148Z,0.00
2022-09-10T03:55:45.210Z,0.00
2022-09-10T03:56:45.233Z,0.00
2022-09-10T03:57:45.233Z,0.00
2022-09-10T03:58:45.265Z,0.00
2022-09-10T03:59:45.298Z,0.00
2022-09-10T04:00:45.671Z,0.00
2022-09-10T04:01:45.489Z,0.00
2022-09-10T04:02:45.399Z,0.00
2022-09-10T04:03:45.434Z,0.00
2022-09-10T04:04:45.489Z,0.00
2022-09-10T04:05:45.499Z,0.00
2022-09-10T04:06:45.532Z,0.00
2022-09-10T04:07:45.869Z,0.00
2022-09-10T04:08:45.601Z,0.00
2022-09-10T04:09:45.635Z,0.00
2022-09-10T04:10:45.729Z,0.00
2022-09-10T04:11:45.706Z,0.00
2022-09-10T04:12:45.739Z,0.00
2022-09-10T04:13:45.779Z,0.00
2022-09-10T04:14:46.054Z,0.00
2022-09-10T04:15:45.843Z,0.00
2022-09-10T04:16:45.917Z,0.00
2022-09-10T04:17:45.915Z,0.00
2022-09-10T04:18:45.938Z,0.00
2022-09-10T04:19:45.975Z,0.00
2022-09-10T04:20:46.148Z,0.00
2022-09-10T04:21:46.338Z,0.00
2022-09-10T04:22:46.076Z,0.00
2022-09-10T04:23:46.142Z,0.00
2022-09-10T04:24:46.145Z,0.00
2022-09-10T04:25:46.314Z,0.00
2022-09-10T04:26:46.231Z,0.00
2022-09-10T04:27:46.259Z,0.00
2022-09-10T04:28:46.530Z,0.00
2022-09-10T04:29:46.315Z,0.00
2022-09-10T04:30:46.346Z,0.00
2022-09-10T04:31:46.423Z,0.00
2022-09-10T04:32:46.418Z,0.00
2022-09-10T04:33:46.450Z,0.00
2022-09-10T04:34:46.733Z,0.00
2022-09-10T04:35:46.514Z,0.00
2022-09-10T04:36:46.555Z,0.00
2022-09-10T04:37:46.581Z,0.00
2022-09-10T04:38:46.612Z,0.00
2022-09-10T04:39:46.685Z,0.00
2022-09-10T04:40:46.987Z,0.00
2022-09-10T04:41:46.718Z,0.00
2022-09-10T04:42:46.803Z,0.00
2022-09-10T04:43:46.985Z,0.00
2022-09-10T04:44:46.819Z,0.00
2022-09-10T04:45:46.878Z,0.00
2022-09-10T04:46:47.135Z,0.00
2022-09-10T04:47:46.923Z,0.00
2022-09-10T04:48:46.955Z,0.00
2022-09-10T04:49:46.984Z,0.00
2022-09-10T04:51:14.379Z,0.00
2022-09-10T04:51:47.055Z,0.00
2022-09-10T04:52:47.091Z,0.00
2022-09-10T04:53:47.373Z,0.00
2022-09-10T04:54:47.164Z,0.00
2022-09-10T04:55:47.195Z,0.00
2022-09-10T04:56:47.224Z,0.00
2022-09-10T04:57:47.254Z,0.00
2022-09-10T04:58:47.314Z,0.00
2022-09-10T04:59:47.322Z,0.00
2022-09-10T05:00:47.682Z,0.00
2022-09-10T05:01:47.501Z,0.00
2022-09-10T05:02:47.422Z,0.00
2022-09-10T05:03:47.456Z,0.00
2022-09-10T05:04:47.492Z,0.00
2022-09-10T05:05:47.522Z,0.00
2022-09-10T05:06:47.560Z,0.00
2022-09-10T05:07:47.845Z,0.00
2022-09-10T05:08:47.630Z,0.00
2022-09-10T05:09:47.664Z,0.00
2022-09-10T05:10:47.698Z,0.00
2022-09-10T05:11:47.833Z,0.00
2022-09-10T05:12:47.768Z,0.00
2022-09-10T05:13:47.806Z,0.00
2022-09-10T05:14:48.151Z,5.63
2022-09-10T05:15:47.869Z,5.63
2022-09-10T05:16:47.985Z,5.63
2022-09-10T05:17:47.928Z,5.63
2022-09-10T05:18:47.967Z,5.63
2022-09-10T05:19:48.004Z,5.63
2022-09-10T05:20:48.031Z,5.63
2022-09-10T05:21:48.320Z,5.63
2022-09-10T05:22:48.107Z,5.63
2022-09-10T05:23:48.134Z,5.63
2022-09-10T05:24:48.172Z,5.63
2022-09-10T05:25:48.201Z,5.63
2022-09-10T05:26:48.237Z,5.63
2022-09-10T05:27:48.269Z,5.63
2022-09-10T05:28:48.603Z,5.63
2022-09-10T05:29:48.341Z,5.63
2022-09-10T05:30:51.809Z,5.63
2022-09-10T05:31:48.429Z,5.63
2022-09-10T05:32:48.437Z,5.63
2022-09-10T05:33:48.471Z,5.63
2022-09-10T05:34:48.505Z,5.63
2022-09-10T05:35:48.790Z,0.00
2022-09-10T05:36:48.573Z,0.00
2022-09-10T05:37:48.608Z,0.00
2022-09-10T05:38:48.640Z,0.00
2022-09-10T05:39:48.698Z,0.00
2022-09-10T05:40:48.710Z,0.00
2022-09-10T05:41:48.742Z,0.00
2022-09-10T05:42:49.040Z,0.00
2022-09-10T05:43:48.811Z,0.00
2022-09-10T05:44:48.840Z,0.00
2022-09-10T05:45:48.921Z,5.63
2022-09-10T05:46:48.929Z,0.00
2022-09-10T05:47:48.943Z,5.63
2022-09-10T05:48:48.983Z,5.63
2022-09-10T05:49:49.274Z,5.63
2022-09-10T05:50:49.044Z,5.63
2022-09-10T05:51:49.077Z,11.25
2022-09-10T05:52:49.117Z,11.25
2022-09-10T05:53:49.143Z,11.25
2022-09-10T05:54:49.179Z,11.25
2022-09-10T05:55:49.210Z,11.25
2022-09-10T05:56:49.548Z,11.25
2022-09-10T05:57:49.373Z,11.25
2022-09-10T05:58:49.317Z,11.25
2022-09-10T05:59:49.363Z,11.25
2022-09-10T06:00:49.384Z,11.25
2022-09-10T06:01:49.429Z,11.25
2022-09-10T06:02:49.610Z,11.25
2022-09-10T06:03:49.736Z,11.25
2022-09-10T06:04:49.520Z,11.25
2022-09-10T06:05:49.552Z,11.25
2022-09-10T06:06:49.607Z,5.63
2022-09-10T06:07:49.616Z,5.63
2022-09-10T06:08:49.651Z,5.63
2022-09-10T06:09:49.937Z,5.63
2022-09-10T06:10:49.724Z,5.63
2022-09-10T06:11:49.752Z,5.63
2022-09-10T06:12:49.791Z,5.63
2022-09-10T06:13:49.827Z,5.63
2022-09-10T06:14:49.859Z,5.63
2022-09-10T06:15:50.191Z,5.63
2022-09-10T06:16:49.998Z,5.63
2022-09-10T06:17:49.953Z,5.63
2022-09-10T06:18:50.006Z,5.63
2022-09-10T06:19:50.023Z,5.63
2022-09-10T06:20:50.062Z,5.63
2022-09-10T06:21:50.389Z,5.63
2022-09-10T06:22:50.128Z,5.63
2022-09-10T06:23:50.156Z,5.63
2022-09-10T06:24:50.192Z,5.63
2022-09-10T06:25:50.274Z,5.63
2022-09-10T06:26:50.261Z,5.63
2022-09-10T06:27:50.292Z,5.63
2022-09-10T06:28:50.581Z,5.63
2022-09-10T06:29:50.364Z,5.63
2022-09-10T06:30:50.453Z,11.25
2022-09-10T06:31:50.431Z,11.25
2022-09-10T06:32:50.480Z,11.25
2022-09-10T06:33:50.499Z,11.25
2022-09-10T06:34:50.550Z,16.88
2022-09-10T06:35:53.638Z,11.25
2022-09-10T06:36:50.604Z,11.25
2022-09-10T06:37:50.631Z,11.25
2022-09-10T06:38:50.662Z,16.88
2022-09-10T06:39:50.775Z,16.88
2022-09-10T06:40:50.736Z,16.88
2022-09-10T06:41:50.768Z,16.88
2022-09-10T06:42:51.099Z,16.88
2022-09-10T06:44:50.871Z,22.50
2022-09-10T06:45:50.941Z,22.50
2022-09-10T06:47:30.494Z,22.50
2022-09-10T06:48:51.694Z,22.50
2022-09-10T06:49:51.039Z,28.13
2022-09-10T06:50:51.290Z,22.50
2022-09-10T06:51:51.127Z,22.50
2022-09-10T06:52:51.135Z,22.50
2022-09-10T06:53:51.222Z,16.88
2022-09-10T06:54:51.227Z,16.88
2022-09-10T06:55:51.237Z,22.50
2022-09-10T06:56:51.276Z,22.50
2022-09-10T06:57:51.305Z,16.88
2022-09-10T06:58:51.342Z,16.88
2022-09-10T06:59:51.371Z,16.88
2022-09-10T07:00:51.450Z,16.88
2022-09-10T07:01:51.837Z,16.88
2022-09-10T07:02:51.474Z,16.88
2022-09-10T07:03:51.759Z,16.88
2022-09-10T07:04:51.588Z,16.88
2022-09-10T07:05:51.583Z,16.88
2022-09-10T07:06:51.635Z,16.88
2022-09-10T07:07:51.896Z,16.88
2022-09-10T07:08:51.678Z,11.25
2022-09-10T07:09:51.712Z,11.25
2022-09-10T07:10:51.745Z,11.25
2022-09-10T07:11:51.776Z,16.88
2022-09-10T07:12:51.817Z,11.25
2022-09-10T07:13:52.109Z,11.25
2022-09-10T07:14:51.888Z,11.25
2022-09-10T07:15:51.947Z,16.88
2022-09-10T07:16:52.002Z,16.88
2022-09-10T07:17:52.153Z,16.88
2022-09-10T07:18:52.027Z,16.88
2022-09-10T07:19:52.051Z,16.88
2022-09-10T07:20:52.083Z,16.88
2022-09-10T07:21:52.195Z,16.88
2022-09-10T07:22:52.171Z,16.88
2022-09-10T07:23:52.197Z,16.88
2022-09-10T07:24:52.268Z,16.88
2022-09-10T07:25:52.503Z,16.88
2022-09-10T07:26:52.289Z,22.50
2022-09-10T07:27:52.327Z,22.50
2022-09-10T07:28:52.353Z,22.50
2022-09-10T07:29:52.397Z,22.50
2022-09-10T07:30:52.457Z,22.50
2022-09-10T07:31:52.459Z,22.50
2022-09-10T07:32:52.851Z,22.50
2022-09-10T07:33:52.538Z,22.50
2022-09-10T07:34:52.577Z,28.13
2022-09-10T07:35:52.598Z,28.13
2022-09-10T07:36:52.840Z,22.50
2022-09-10T07:37:52.769Z,22.50
2022-09-10T07:38:52.718Z,28.13
2022-09-10T07:39:53.108Z,28.13
2022-09-10T07:40:52.820Z,33.75
2022-09-10T07:41:52.796Z,39.38
2022-09-10T07:42:52.833Z,33.75
2022-09-10T07:43:52.863Z,28.13
2022-09-10T07:44:52.904Z,22.50
2022-09-10T07:45:52.993Z,16.88
2022-09-10T07:46:53.223Z,16.88
2022-09-10T07:47:52.997Z,16.88
2022-09-10T07:48:53.047Z,16.88
2022-09-10T07:49:53.068Z,16.88
2022-09-10T07:50:53.105Z,16.88
2022-09-10T07:51:57.692Z,22.50
2022-09-10T07:52:53.183Z,22.50
2022-09-10T07:53:53.604Z,28.13
2022-09-10T07:54:53.250Z,33.75
2022-09-10T07:55:53.268Z,33.75
2022-09-10T07:56:53.299Z,28.13
2022-09-10T07:57:55.434Z,33.75
2022-09-10T07:58:53.369Z,33.75
2022-09-10T07:59:53.508Z,33.75
2022-09-10T08:00:53.694Z,39.38
2022-09-10T08:01:53.544Z,45.00
2022-09-10T08:02:53.603Z,50.63
2022-09-10T08:03:53.548Z,56.25
2022-09-10T08:04:53.582Z,50.63
2022-09-10T08:05:53.608Z,50.63
2022-09-10T08:06:53.746Z,50.63
2022-09-10T08:07:53.925Z,50.63
2022-09-10T08:08:53.709Z,50.63
2022-09-10T08:09:53.774Z,50.63
2022-09-10T08:10:53.795Z,45.00
2022-09-10T08:11:53.808Z,45.00
2022-09-10T08:12:53.845Z,39.38
2022-09-10T08:13:53.876Z,39.38
2022-09-10T08:14:54.391Z,45.00
2022-09-10T08:15:53.972Z,45.00
2022-09-10T08:16:53.979Z,33.75
2022-09-10T08:17:54.011Z,39.38
2022-09-10T08:18:54.045Z,39.38
2022-09-10T08:19:54.081Z,45.00
2022-09-10T08:20:54.191Z,45.00
2022-09-10T08:21:54.398Z,39.38
2022-09-10T08:22:54.201Z,39.38
2022-09-10T08:23:54.233Z,45.00
2022-09-10T08:24:54.254Z,45.00
2022-09-10T08:25:54.295Z,45.00
2022-09-10T08:26:54.344Z,45.00
2022-09-10T08:27:54.651Z,45.00
2022-09-10T08:28:54.384Z,56.25
2022-09-10T08:29:54.424Z,50.63
2022-09-10T08:30:54.544Z,45.00
2022-09-10T08:31:54.657Z,45.00
2022-09-10T08:32:54.530Z,50.63
2022-09-10T08:33:54.863Z,56.25
2022-09-10T08:34:54.587Z,67.50
2022-09-10T08:35:54.807Z,67.50
2022-09-10T08:37:54.806Z,78.75
2022-09-10T08:38:59.802Z,84.38
2022-09-10T08:39:54.890Z,78.75
2022-09-10T08:40:54.801Z,73.13
2022-09-10T08:41:54.828Z,78.75
2022-09-10T08:42:54.948Z,84.38
2022-09-10T08:43:54.896Z,90.00
2022-09-10T08:44:54.951Z,90.00
2022-09-10T08:45:55.296Z,90.00
2022-09-10T08:46:55.011Z,95.63
2022-09-10T08:47:55.033Z,84.38
2022-09-10T08:48:55.149Z,95.63
2022-09-10T08:49:55.143Z,106.88
2022-09-10T08:50:55.140Z,112.50
2022-09-10T08:51:55.228Z,106.88
2022-09-10T08:52:55.505Z,95.63
2022-09-10T08:53:55.257Z,95.63
2022-09-10T08:54:55.268Z,101.25
2022-09-10T08:55:55.302Z,95.63
2022-09-10T08:56:55.350Z,95.63
2022-09-10T08:57:55.425Z,95.63
2022-09-10T08:58:55.469Z,101.25
2022-09-10T08:59:55.749Z,106.88
2022-09-10T09:00:55.487Z,106.88
2022-09-10T09:01:55.589Z,106.88
2022-09-10T09:02:55.847Z,118.13
2022-09-10T09:03:55.583Z,112.50
2022-09-10T09:04:55.709Z,95.63
2022-09-10T09:05:55.694Z,84.38
2022-09-10T09:06:55.989Z,84.38
2022-09-10T09:07:55.770Z,84.38
2022-09-10T09:08:55.755Z,84.38
2022-09-10T09:09:55.782Z,78.75
2022-09-10T09:10:56.072Z,78.75
2022-09-10T09:11:55.863Z,78.75
2022-09-10T09:12:55.907Z,78.75
2022-09-10T09:13:55.964Z,78.75
2022-09-10T09:14:56.005Z,78.75
2022-09-10T09:15:56.115Z,84.38
2022-09-10T09:16:56.085Z,84.38
2022-09-10T09:17:56.078Z,84.38
2022-09-10T09:18:56.155Z,78.75
2022-09-10T09:19:56.540Z,84.38
2022-09-10T09:20:56.160Z,90.00
2022-09-10T09:21:56.199Z,84.38
2022-09-10T09:22:56.237Z,73.13
2022-09-10T09:24:12.766Z,67.50
2022-09-10T09:24:56.399Z,56.25
2022-09-10T09:25:56.590Z,50.63
2022-09-10T09:26:56.375Z,50.63
2022-09-10T09:27:56.443Z,50.63
2022-09-10T09:28:56.439Z,50.63
2022-09-10T09:29:56.473Z,50.63
2022-09-10T09:30:56.703Z,56.25
2022-09-10T09:31:56.796Z,50.63
2022-09-10T09:32:56.586Z,45.00
2022-09-10T09:33:56.621Z,45.00
2022-09-10T09:34:56.659Z,45.00
2022-09-10T09:35:56.693Z,45.00
2022-09-10T09:36:56.726Z,45.00
2022-09-10T09:37:57.056Z,45.00
2022-09-10T09:38:56.822Z,45.00
2022-09-10T09:39:56.866Z,50.63
2022-09-10T09:40:56.850Z,61.88
2022-09-10T09:41:56.886Z,73.13
2022-09-10T09:42:56.928Z,78.75
2022-09-10T09:43:56.953Z,67.50
2022-09-10T09:44:57.461Z,61.88
2022-09-10T09:45:57.062Z,67.50
2022-09-10T09:46:57.235Z,61.88
2022-09-10T09:47:57.148Z,56.25
2022-09-10T09:48:57.127Z,56.25
2022-09-10T09:49:57.227Z,39.38
2022-09-10T09:50:57.196Z,39.38
2022-09-10T09:51:57.533Z,50.63
2022-09-10T09:52:57.274Z,78.75
2022-09-10T09:54:25.714Z,84.38
2022-09-10T09:55:13.754Z,78.75
2022-09-10T09:55:57.371Z,67.50
2022-09-10T09:56:57.403Z,61.88
2022-09-10T09:57:57.452Z,61.88
2022-09-10T09:58:57.780Z,61.88
2022-09-10T09:59:57.502Z,61.88
2022-09-10T10:00:57.547Z,61.88
2022-09-10T10:01:57.680Z,61.88
2022-09-10T10:02:57.622Z,56.25
2022-09-10T10:03:57.642Z,50.63
2022-09-10T10:04:57.693Z,56.25
2022-09-10T10:05:57.959Z,56.25
2022-09-10T10:06:57.761Z,45.00
2022-09-10T10:07:57.777Z,39.38
2022-09-10T10:08:57.817Z,39.38
2022-09-10T10:09:57.848Z,33.75
2022-09-10T10:10:57.878Z,33.75
2022-09-10T10:11:57.925Z,28.13
2022-09-10T10:12:58.247Z,22.50
2022-09-10T10:13:57.991Z,28.13
2022-09-10T10:14:58.017Z,22.50
2022-09-10T10:15:58.076Z,33.75
2022-09-10T10:17:00.691Z,39.38
2022-09-10T10:17:58.125Z,39.38
2022-09-10T10:18:58.177Z,45.00
2022-09-10T10:20:58.473Z,39.38
2022-09-10T10:21:58.256Z,33.75
2022-09-10T10:22:58.293Z,28.13
2022-09-10T10:23:58.326Z,33.75
2022-09-10T10:24:58.359Z,45.00
2022-09-10T10:25:58.391Z,50.63
2022-09-10T10:26:58.433Z,56.25
2022-09-10T10:27:58.714Z,67.50
2022-09-10T10:28:58.506Z,67.50
2022-09-10T10:29:58.551Z,78.75
2022-09-10T10:30:58.626Z,73.13
2022-09-10T10:32:01.542Z,67.50
2022-09-10T10:32:58.644Z,67.50
2022-09-10T10:33:58.668Z,78.75
2022-09-10T10:34:58.969Z,106.88
2022-09-10T10:35:58.756Z,101.25
2022-09-10T10:36:58.770Z,101.25
2022-09-10T10:37:58.805Z,95.63
2022-09-10T10:38:58.838Z,95.63
2022-09-10T10:39:58.965Z,67.50
2022-09-10T10:40:58.908Z,61.88
2022-09-10T10:41:59.195Z,61.88
2022-09-10T10:42:58.989Z,61.88
2022-09-10T10:43:59.040Z,56.25
2022-09-10T10:44:59.042Z,39.38
2022-09-10T10:45:59.229Z,50.63
2022-09-10T10:46:59.115Z,50.63
2022-09-10T10:47:59.150Z,33.75
2022-09-10T10:49:03.557Z,39.38
2022-09-10T10:49:59.215Z,33.75
2022-09-10T10:50:59.277Z,33.75
2022-09-10T10:51:59.356Z,33.75
2022-09-10T10:52:59.365Z,39.38
2022-09-10T10:53:59.456Z,39.38
2022-09-10T10:54:59.388Z,45.00
2022-09-10T10:55:59.728Z,45.00
2022-09-10T10:56:59.465Z,28.13
2022-09-10T10:57:59.491Z,28.13
2022-09-10T10:58:59.544Z,33.75
2022-09-10T10:59:59.556Z,28.13
2022-09-10T11:00:59.595Z,28.13
2022-09-10T11:01:59.713Z,28.13
2022-09-10T11:02:59.911Z,28.13
2022-09-10T11:03:59.696Z,28.13
2022-09-10T11:04:59.728Z,28.13
2022-09-10T11:05:59.759Z,28.13
2022-09-10T11:06:59.816Z,28.13
2022-09-10T11:07:59.827Z,28.13
2022-09-10T11:08:59.866Z,28.13
2022-09-10T11:09:59.901Z,28.13
2022-09-10T11:10:59.951Z,28.13
2022-09-10T11:11:59.967Z,22.50
2022-09-10T11:13:00.008Z,28.13
2022-09-10T11:14:00.037Z,28.13
2022-09-10T11:15:00.077Z,33.75
2022-09-10T11:16:00.372Z,50.63
2022-09-10T11:17:00.144Z,39.38
2022-09-10T11:18:00.170Z,56.25
2022-09-10T11:19:00.206Z,78.75
2022-09-10T11:20:24.716Z,84.38
2022-09-10T11:21:00.282Z,90.00
2022-09-10T11:22:00.564Z,78.75
2022-09-10T11:23:00.360Z,84.38
2022-09-10T11:24:00.411Z,95.63
2022-09-10T11:25:00.428Z,73.13
2022-09-10T11:26:00.450Z,50.63
2022-09-10T11:27:00.484Z,61.88
2022-09-10T11:28:00.766Z,67.50
2022-09-10T11:29:00.547Z,61.88
2022-09-10T11:30:00.583Z,67.50
2022-09-10T11:31:00.676Z,101.25
2022-09-10T11:32:00.724Z,95.63
2022-09-10T11:33:00.693Z,90.00
2022-09-10T11:34:00.721Z,67.50
2022-09-10T11:35:01.005Z,45.00
2022-09-10T11:36:00.784Z,50.63
2022-09-10T11:37:00.835Z,50.63
2022-09-10T11:38:00.925Z,45.00
2022-09-10T11:39:00.968Z,45.00
2022-09-10T11:40:00.951Z,73.13
2022-09-10T11:41:00.963Z,61.88
2022-09-10T11:42:00.999Z,50.63
2022-09-10T11:43:01.031Z,45.00
2022-09-10T11:44:01.062Z,33.75
2022-09-10T11:45:01.109Z,45.00
2022-09-10T11:46:01.139Z,67.50
2022-09-10T11:47:01.163Z,90.00
2022-09-10T11:48:01.448Z,118.13
2022-09-10T11:49:01.234Z,95.63
2022-09-10T11:50:01.275Z,90.00
2022-09-10T11:51:01.300Z,84.38
2022-09-10T11:52:01.332Z,67.50
2022-09-10T11:53:01.374Z,50.63
2022-09-10T11:54:01.429Z,50.63
2022-09-10T11:55:02.355Z,56.25
2022-09-10T11:56:01.725Z,56.25
2022-09-10T11:57:01.779Z,73.13
2022-09-10T11:58:01.605Z,67.50
2022-09-10T11:59:01.600Z,78.75
2022-09-10T12:00:01.610Z,84.38
2022-09-10T12:01:01.717Z,95.63
2022-09-10T12:02:02.034Z,95.63
2022-09-10T12:03:01.905Z,73.13
2022-09-10T12:04:01.853Z,45.00
2022-09-10T12:05:01.785Z,39.38
2022-09-10T12:06:01.833Z,33.75
2022-09-10T12:07:01.858Z,28.13
2022-09-10T12:08:01.889Z,33.75
2022-09-10T12:09:02.221Z,22.50
2022-09-10T12:10:01.985Z,45.00
2022-09-10T12:11:02.001Z,39.38
2022-09-10T12:12:02.104Z,39.38
2022-09-10T12:13:02.079Z,50.63
2022-09-10T12:14:02.087Z,33.75
2022-09-10T12:15:02.129Z,39.38
2022-09-10T12:16:02.469Z,45.00
2022-09-10T12:17:02.205Z,45.00
2022-09-10T12:18:02.224Z,39.38
2022-09-10T12:19:02.261Z,39.38
2022-09-10T12:20:02.387Z,39.38
2022-09-10T12:21:02.328Z,39.38
2022-09-10T12:22:02.362Z,39.38
2022-09-10T12:23:02.706Z,39.38
2022-09-10T12:24:02.484Z,39.38
2022-09-10T12:25:02.480Z,33.75
2022-09-10T12:26:02.500Z,28.13
2022-09-10T12:27:02.669Z,22.50
2022-09-10T12:28:02.590Z,22.50
2022-09-10T12:29:02.602Z,16.88
2022-09-10T12:30:03.037Z,16.88
2022-09-10T12:31:03.009Z,16.88
2022-09-10T12:32:02.702Z,16.88
2022-09-10T12:33:02.738Z,16.88
2022-09-10T12:34:02.816Z,16.88
2022-09-10T12:35:02.802Z,22.50
2022-09-10T12:36:02.840Z,50.63
2022-09-10T12:37:03.177Z,56.25
2022-09-10T12:38:02.905Z,61.88
2022-09-10T12:39:02.943Z,67.50
2022-09-10T12:40:03.289Z,61.88
2022-09-10T12:41:03.007Z,78.75
2022-09-10T12:42:03.039Z,78.75
2022-09-10T12:43:03.392Z,78.75
2022-09-10T12:44:03.120Z,78.75
2022-09-10T12:45:03.150Z,67.50
2022-09-10T12:46:03.220Z,67.50
2022-09-10T12:47:03.235Z,73.13
2022-09-10T12:48:03.325Z,56.25
2022-09-10T12:49:03.524Z,39.38
2022-09-10T12:50:03.315Z,39.38
2022-09-10T12:51:03.371Z,39.38
2022-09-10T12:52:03.406Z,39.38
2022-09-10T12:53:03.412Z,45.00
2022-09-10T12:54:03.579Z,39.38
2022-09-10T12:55:04.010Z,33.75
2022-09-10T12:56:03.531Z,22.50
2022-09-10T12:57:03.614Z,22.50
2022-09-10T12:58:03.642Z,28.13
2022-09-10T12:59:03.640Z,33.75
2022-09-10T13:00:03.650Z,28.13
2022-09-10T13:01:03.684Z,22.50
2022-09-10T13:02:04.069Z,16.88
2022-09-10T13:03:03.757Z,22.50
2022-09-10T13:04:03.785Z,33.75
2022-09-10T13:05:03.893Z,50.63
2022-09-10T13:06:03.858Z,50.63
2022-09-10T13:07:03.898Z,67.50
2022-09-10T13:08:03.923Z,95.63
2022-09-10T13:09:03.953Z,118.13
2022-09-10T13:10:04.166Z,140.63
2022-09-10T13:11:04.022Z,135.00
2022-09-10T13:12:04.063Z,140.63
2022-09-10T13:13:04.722Z,146.25